createdAt,value
2019-05-15T00:02:02.798Z,100607.27
2019-05-15T00:04:34.087Z,100602.44
2019-05-15T00:07:08.801Z,100605.53
2019-05-15T00:09:41.921Z,100610.80
2019-05-15T00:12:11.897Z,100607.31
2019-05-15T00:14:44.147Z,100598.52
2019-05-15T00:17:15.218Z,100597.56
2019-05-15T00:19:48.453Z,100594.11
2019-05-15T00:22:19.947Z,100590.98
2019-05-15T00:24:51.151Z,100585.72
2019-05-15T00:27:22.523Z,100589.56
2019-05-15T00:29:53.867Z,100590.39
2019-05-15T00:32:25.618Z,100583.92
2019-05-15T00:34:58.288Z,100586.47
2019-05-15T00:37:29.827Z,100579.84
2019-05-15T00:40:01.229Z,100580.24
2019-05-15T00:42:32.397Z,100570.69
2019-05-15T00:45:03.367Z,100573.27
2019-05-15T00:47:34.367Z,100564.42
2019-05-15T00:50:05.699Z,100559.07
2019-05-15T00:52:38.860Z,100559.02
2019-05-15T00:55:10.868Z,100551.95
2019-05-15T00:57:42.067Z,100561.12
2019-05-15T01:00:13.187Z,100556.77
2019-05-15T01:02:44.137Z,100561.56
2019-05-15T01:05:15.387Z,100555.93
2019-05-15T01:07:48.029Z,100554.66
2019-05-15T01:10:19.352Z,100545.90
2019-05-15T01:12:50.437Z,100539.00
2019-05-15T01:15:21.529Z,100549.87
2019-05-15T01:17:52.397Z,100549.47
2019-05-15T01:20:23.767Z,100551.17
2019-05-15T01:22:54.501Z,100549.03
2019-05-15T01:25:25.447Z,100543.33
2019-05-15T01:27:58.363Z,100546.81
2019-05-15T01:30:29.057Z,100542.89
2019-05-15T01:33:00.079Z,100539.75
2019-05-15T01:35:31.087Z,100541.02
2019-05-15T01:38:02.009Z,100545.81
2019-05-15T01:40:33.967Z,100540.58
2019-05-15T01:43:05.807Z,100544.95
2019-05-15T01:45:39.081Z,100530.55
2019-05-15T01:48:09.587Z,100525.72
2019-05-15T01:50:40.677Z,100515.67
2019-05-15T01:53:11.697Z,100510.44
2019-05-15T01:55:42.827Z,100512.98
2019-05-15T01:58:13.687Z,100501.72
2019-05-15T02:00:44.897Z,100508.22
2019-05-15T02:03:18.344Z,100504.69
2019-05-15T02:05:49.607Z,100498.94
2019-05-15T02:08:20.707Z,100496.31
2019-05-15T02:10:52.887Z,100491.08
2019-05-15T02:13:23.817Z,100487.11
2019-05-15T02:15:55.007Z,100481.39
2019-05-15T02:18:28.345Z,100477.34
2019-05-15T02:20:58.822Z,100481.34
2019-05-15T02:23:29.909Z,100471.71
2019-05-15T02:26:00.847Z,100479.12
2019-05-15T02:28:31.808Z,100471.71
2019-05-15T02:31:02.900Z,100470.80
2019-05-15T02:33:34.159Z,100474.28
2019-05-15T02:36:05.087Z,100469.92
2019-05-15T02:38:40.439Z,100467.30
2019-05-15T02:41:10.133Z,100472.02
2019-05-15T02:43:41.527Z,100469.80
2019-05-15T02:46:12.515Z,100465.83
2019-05-15T02:48:43.688Z,100460.14
2019-05-15T02:51:14.552Z,100457.01
2019-05-15T02:53:45.428Z,100450.98
2019-05-15T02:56:20.025Z,100441.77
2019-05-15T02:58:49.427Z,100432.66
2019-05-15T03:01:20.837Z,100434.76
2019-05-15T03:03:52.128Z,100421.62
2019-05-15T03:06:23.302Z,100421.27
2019-05-15T03:08:54.418Z,100413.42
2019-05-15T03:11:25.667Z,100402.03
2019-05-15T03:13:59.271Z,100404.55
2019-05-15T03:16:30.561Z,100408.92
2019-05-15T03:19:01.788Z,100406.78
2019-05-15T03:21:33.283Z,100402.77
2019-05-15T03:24:04.448Z,100408.44
2019-05-15T03:26:35.662Z,100409.22
2019-05-15T03:29:09.483Z,100417.98
2019-05-15T03:31:56.713Z,100420.56
2019-05-15T03:34:20.498Z,100428.41
2019-05-15T03:36:45.840Z,100430.52
2019-05-15T03:39:19.045Z,100432.17
2019-05-15T03:41:50.150Z,100431.73
2019-05-15T03:44:21.208Z,100432.07
2019-05-15T03:46:52.329Z,100434.64
2019-05-15T03:49:23.269Z,100431.50
2019-05-15T03:51:54.168Z,100427.97
2019-05-15T03:54:25.078Z,100434.03
2019-05-15T03:56:58.330Z,100430.49
2019-05-15T03:59:29.397Z,100433.90
2019-05-15T04:02:00.748Z,100435.68
2019-05-15T04:04:31.489Z,100430.49
2019-05-15T04:07:03.008Z,100429.67
2019-05-15T04:09:33.948Z,100434.81
2019-05-15T04:12:04.819Z,100427.48
2019-05-15T04:14:39.238Z,100431.28
2019-05-15T04:17:09.138Z,100431.57
2019-05-15T04:19:41.116Z,100435.89
2019-05-15T04:22:12.629Z,100430.39
2019-05-15T04:24:43.998Z,100427.77
2019-05-15T04:27:14.979Z,100422.80
2019-05-15T04:29:49.032Z,100422.21
2019-05-15T04:32:20.071Z,100425.62
2019-05-15T04:34:52.578Z,100432.55
2019-05-15T04:37:23.366Z,100415.48
2019-05-15T04:39:54.149Z,100421.06
2019-05-15T04:42:24.927Z,100415.43
2019-05-15T04:44:55.717Z,100411.80
2019-05-15T04:47:30.211Z,100410.35
2019-05-15T04:49:59.763Z,100407.73
2019-05-15T04:52:30.934Z,100405.92
2019-05-15T04:55:02.038Z,100404.48
2019-05-15T04:57:34.498Z,100403.13
2019-05-15T05:00:09.175Z,100403.47
2019-05-15T05:02:40.019Z,100404.86
2019-05-15T05:05:10.900Z,100404.33
2019-05-15T05:07:42.707Z,100398.65
2019-05-15T05:10:14.677Z,100402.63
2019-05-15T05:12:50.560Z,100399.04
2019-05-15T05:15:19.041Z,100400.22
2019-05-15T05:17:50.308Z,100398.80
2019-05-15T05:20:21.109Z,100385.31
2019-05-15T05:22:51.969Z,100383.36
2019-05-15T05:25:27.988Z,100383.26
2019-05-15T05:27:58.898Z,100387.92
2019-05-15T05:30:29.787Z,100389.28
2019-05-15T05:33:00.648Z,100386.61
2019-05-15T05:35:31.647Z,100383.55
2019-05-15T05:38:02.627Z,100383.05
2019-05-15T05:40:33.527Z,100381.20
2019-05-15T05:43:04.607Z,100388.10
2019-05-15T05:45:38.206Z,100388.44
2019-05-15T05:48:08.894Z,100385.03
2019-05-15T05:50:43.850Z,100385.81
2019-05-15T05:53:13.277Z,100374.55
2019-05-15T05:55:44.647Z,100371.82
2019-05-15T05:58:15.657Z,100373.27
2019-05-15T06:00:48.958Z,100361.28
2019-05-15T06:03:20.060Z,100371.66
2019-05-15T06:05:50.930Z,100370.68
2019-05-15T06:08:21.728Z,100374.95
2019-05-15T06:10:52.687Z,100379.36
2019-05-15T06:13:23.756Z,100378.16
2019-05-15T06:15:54.887Z,100381.37
2019-05-15T06:18:28.126Z,100378.85
2019-05-15T06:20:58.975Z,100386.77
2019-05-15T06:23:34.581Z,100384.58
2019-05-15T06:26:03.647Z,100382.34
2019-05-15T06:28:35.151Z,100381.81
2019-05-15T06:31:08.569Z,100387.48
2019-05-15T06:33:38.949Z,100382.04
2019-05-15T06:36:09.902Z,100374.89
2019-05-15T06:38:41.041Z,100383.97
2019-05-15T06:41:11.890Z,100379.98
2019-05-15T06:43:42.907Z,100386.39
2019-05-15T06:46:13.747Z,100381.90
2019-05-15T06:48:44.687Z,100376.79
2019-05-15T06:51:18.004Z,100378.77
2019-05-15T06:53:49.226Z,100379.58
2019-05-15T06:56:20.422Z,100373.19
2019-05-15T06:58:51.223Z,100374.16
2019-05-15T07:01:22.488Z,100375.09
2019-05-15T07:03:53.329Z,100376.73
2019-05-15T07:06:24.339Z,100368.00
2019-05-15T07:08:58.537Z,100366.18
2019-05-15T07:11:28.778Z,100370.06
2019-05-15T07:13:59.539Z,100368.11
2019-05-15T07:16:30.500Z,100366.79
2019-05-15T07:19:01.388Z,100359.64
2019-05-15T07:21:33.167Z,100362.54
2019-05-15T07:24:04.257Z,100361.50
2019-05-15T07:26:35.071Z,100364.84
2019-05-15T07:29:07.911Z,100360.79
2019-05-15T07:31:38.636Z,100358.87
2019-05-15T07:34:09.468Z,100358.11
2019-05-15T07:36:40.317Z,100357.95
2019-05-15T07:39:11.190Z,100357.72
2019-05-15T07:41:41.978Z,100355.87
2019-05-15T07:44:13.657Z,100362.31
2019-05-15T07:46:44.457Z,100356.47
2019-05-15T07:49:15.149Z,100359.16
2019-05-15T07:51:48.608Z,100357.72
2019-05-15T07:54:18.597Z,100348.98
2019-05-15T07:56:49.407Z,100354.23
2019-05-15T07:59:20.267Z,100349.37
2019-05-15T08:01:51.168Z,100356.14
2019-05-15T08:04:28.749Z,100354.83
2019-05-15T08:06:54.556Z,100349.58
2019-05-15T08:09:28.261Z,100350.62
2019-05-15T08:12:01.314Z,100341.91
2019-05-15T08:14:31.147Z,100341.97
2019-05-15T08:17:02.098Z,100340.72
2019-05-15T08:19:32.899Z,100333.83
2019-05-15T08:22:03.689Z,100329.50
2019-05-15T08:24:34.608Z,100324.31
2019-05-15T08:27:08.317Z,100328.10
2019-05-15T08:29:39.468Z,100329.23
2019-05-15T08:32:10.259Z,100329.35
2019-05-15T08:34:41.167Z,100330.10
2019-05-15T08:37:12.087Z,100329.30
2019-05-15T08:39:42.947Z,100333.29
2019-05-15T08:42:14.549Z,100332.91
2019-05-15T08:44:45.427Z,100333.83
2019-05-15T08:47:18.696Z,100336.45
2019-05-15T08:49:48.653Z,100336.06
2019-05-15T08:52:19.428Z,100338.69
2019-05-15T08:54:50.162Z,100326.40
2019-05-15T08:57:20.829Z,100332.91
2019-05-15T08:59:51.735Z,100329.30
2019-05-15T09:02:22.670Z,100330.16
2019-05-15T09:04:53.548Z,100329.77
2019-05-15T09:07:24.434Z,100323.33
2019-05-15T09:09:55.248Z,100323.84
2019-05-15T09:12:26.400Z,100320.48
2019-05-15T09:14:58.208Z,100322.67
2019-05-15T09:17:29.268Z,100317.14
2019-05-15T09:20:00.168Z,100310.52
2019-05-15T09:22:31.055Z,100314.91
2019-05-15T09:25:01.728Z,100309.59
2019-05-15T09:27:33.438Z,100306.72
2019-05-15T09:30:04.597Z,100304.00
2019-05-15T09:32:35.427Z,100300.86
2019-05-15T09:35:08.309Z,100301.96
2019-05-15T09:37:38.983Z,100292.77
2019-05-15T09:40:10.167Z,100293.95
2019-05-15T09:42:40.888Z,100297.45
2019-05-15T09:45:12.194Z,100290.34
2019-05-15T09:47:42.956Z,100284.16
2019-05-15T09:50:13.828Z,100284.96
2019-05-15T09:52:45.560Z,100290.05
2019-05-15T09:55:18.017Z,100284.23
2019-05-15T09:57:49.245Z,100292.17
2019-05-15T10:00:20.350Z,100291.50
2019-05-15T10:02:51.109Z,100296.95
2019-05-15T10:05:22.028Z,100295.31
2019-05-15T10:07:52.929Z,100290.95
2019-05-15T10:10:24.638Z,100284.55
2019-05-15T10:12:55.550Z,100288.07
2019-05-15T10:15:26.678Z,100287.30
2019-05-15T10:17:59.698Z,100285.00
2019-05-15T10:20:29.918Z,100287.17
2019-05-15T10:23:00.848Z,100286.19
2019-05-15T10:25:31.708Z,100293.20
2019-05-15T10:28:02.367Z,100284.61
2019-05-15T10:30:34.161Z,100286.86
2019-05-15T10:33:05.093Z,100293.00
2019-05-15T10:35:36.008Z,100291.78
2019-05-15T10:38:08.869Z,100291.78
2019-05-15T10:40:44.366Z,100287.33
2019-05-15T10:43:11.694Z,100284.58
2019-05-15T10:45:43.422Z,100281.02
2019-05-15T10:48:14.367Z,100278.72
2019-05-15T10:50:45.227Z,100275.48
2019-05-15T10:53:18.479Z,100280.06
2019-05-15T10:55:49.505Z,100268.11
2019-05-15T10:58:22.168Z,100268.11
2019-05-15T11:00:53.387Z,100269.27
2019-05-15T11:03:24.439Z,100255.62
2019-05-15T11:05:55.261Z,100267.21
2019-05-15T11:08:28.947Z,100264.90
2019-05-15T11:10:58.728Z,100258.30
2019-05-15T11:13:29.567Z,100252.11
2019-05-15T11:16:00.468Z,100260.34
2019-05-15T11:18:31.318Z,100250.28
2019-05-15T11:21:02.309Z,100247.97
2019-05-15T11:23:33.267Z,100247.42
2019-05-15T11:26:05.052Z,100250.78
2019-05-15T11:28:38.744Z,100247.16
2019-05-15T11:31:10.399Z,100244.53
2019-05-15T11:33:40.908Z,100242.67
2019-05-15T11:36:11.767Z,100232.78
2019-05-15T11:38:42.608Z,100236.45
2019-05-15T11:41:13.577Z,100234.97
2019-05-15T11:43:45.118Z,100227.58
2019-05-15T11:46:18.417Z,100227.59
2019-05-15T11:48:49.864Z,100228.38
2019-05-15T11:51:22.050Z,100228.38
2019-05-15T11:53:52.848Z,100232.64
2019-05-15T11:56:24.757Z,100226.06
2019-05-15T11:58:55.637Z,100222.19
2019-05-15T12:01:28.634Z,100218.34
2019-05-15T12:03:58.988Z,100215.02
2019-05-15T12:06:31.087Z,100213.14
2019-05-15T12:09:01.949Z,100209.91
2019-05-15T12:11:37.341Z,100212.08
2019-05-15T12:14:08.504Z,100209.20
2019-05-15T12:16:40.187Z,100209.35
2019-05-15T12:19:16.974Z,100212.38
2019-05-15T12:21:44.589Z,100206.11
2019-05-15T12:24:15.428Z,100205.02
2019-05-15T12:26:48.931Z,100202.44
2019-05-15T12:29:18.862Z,100201.45
2019-05-15T12:31:49.788Z,100198.55
2019-05-15T12:34:21.648Z,100191.91
2019-05-15T12:39:29.500Z,100190.41
2019-05-15T12:59:45.578Z,100183.34
2019-05-15T13:02:18.704Z,100182.50
2019-05-15T13:04:49.567Z,100179.25
2019-05-15T13:07:20.587Z,100180.97
2019-05-15T13:09:51.408Z,100180.97
2019-05-15T13:12:23.221Z,100173.83
2019-05-15T13:14:54.058Z,100176.78
2019-05-15T13:17:25.597Z,100175.39
2019-05-15T13:19:58.628Z,100176.45
2019-05-15T13:22:29.014Z,100173.42
2019-05-15T13:25:00.290Z,100170.03
2019-05-15T13:27:31.800Z,100172.13
2019-05-15T13:30:02.597Z,100171.43
2019-05-15T13:32:33.308Z,100172.63
2019-05-15T13:35:04.378Z,100165.50
2019-05-15T13:37:35.109Z,100159.45
2019-05-15T13:40:06.189Z,100158.30
2019-05-15T13:42:39.020Z,100155.21
2019-05-15T13:45:12.942Z,100153.11
2019-05-15T13:47:42.287Z,100152.17
2019-05-15T13:50:13.318Z,100145.91
2019-05-15T13:52:44.178Z,100142.42
2019-05-15T13:55:24.606Z,100141.59
2019-05-15T13:57:48.867Z,100140.20
2019-05-15T14:00:19.987Z,100140.63
2019-05-15T14:02:52.357Z,100139.33
2019-05-15T14:05:23.385Z,100140.31
2019-05-15T14:07:54.282Z,100136.36
2019-05-15T14:10:25.307Z,100135.53
2019-05-15T14:12:58.379Z,100132.90
2019-05-15T14:15:30.458Z,100131.58
2019-05-15T14:18:01.244Z,100121.92
2019-05-15T14:20:32.108Z,100123.54
2019-05-15T14:23:02.990Z,100119.59
2019-05-15T14:25:33.667Z,100123.92
2019-05-15T14:28:04.638Z,100118.80
2019-05-15T14:30:35.549Z,100119.44
2019-05-15T14:33:08.484Z,100119.69
2019-05-15T14:35:38.888Z,100123.53
2019-05-15T14:38:10.510Z,100125.33
2019-05-15T14:40:42.197Z,100119.75
2019-05-15T14:43:13.048Z,100129.52
2019-05-15T14:45:44.327Z,100121.64
2019-05-15T14:48:15.262Z,100120.48
2019-05-15T14:50:47.618Z,100124.64
2019-05-15T14:53:18.841Z,100117.45
2019-05-15T14:55:49.637Z,100121.02
2019-05-15T14:58:20.620Z,100119.70
2019-05-15T15:00:51.380Z,100118.17
2019-05-15T15:03:22.327Z,100118.47
2019-05-15T15:05:53.167Z,100125.05
2019-05-15T15:08:25.341Z,100115.05
2019-05-15T15:10:59.262Z,100119.17
2019-05-15T15:13:29.867Z,100116.08
2019-05-15T15:16:01.151Z,100113.59
2019-05-15T15:18:32.147Z,100112.06
2019-05-15T15:21:03.027Z,100109.88
2019-05-15T15:23:33.897Z,100111.64
2019-05-15T15:26:04.707Z,100110.26
2019-05-15T15:28:35.628Z,100116.08
2019-05-15T15:31:06.547Z,100109.50
2019-05-15T15:33:39.187Z,100106.49
2019-05-15T15:36:09.648Z,100097.58
2019-05-15T15:38:43.989Z,100090.01
2019-05-15T15:41:13.807Z,100094.27
2019-05-15T15:43:44.629Z,100088.37
2019-05-15T15:46:15.417Z,100083.53
2019-05-15T15:48:48.227Z,100079.73
2019-05-15T15:51:18.847Z,100078.41
2019-05-15T15:53:49.727Z,100086.61
2019-05-15T15:56:20.497Z,100084.36
2019-05-15T15:58:51.407Z,100081.72
2019-05-15T16:01:25.690Z,100085.66
2019-05-15T16:03:54.698Z,100083.27
2019-05-15T16:06:25.728Z,100079.42
2019-05-15T16:08:56.500Z,100085.28
2019-05-15T16:11:27.975Z,100083.42
2019-05-15T16:13:59.898Z,100076.61
2019-05-15T16:16:31.147Z,100073.23
2019-05-15T16:19:01.927Z,100079.49
2019-05-15T16:21:32.917Z,100080.36
2019-05-15T16:24:16.671Z,100086.31
2019-05-15T16:26:37.915Z,100090.25
2019-05-15T16:29:09.219Z,100090.25
2019-05-15T16:31:40.387Z,100081.88
2019-05-15T16:34:11.357Z,100088.94
2019-05-15T16:36:42.448Z,100086.69
2019-05-15T16:39:13.170Z,100081.44
2019-05-15T16:41:44.267Z,100081.50
2019-05-15T16:44:22.473Z,100073.24
2019-05-15T16:46:53.420Z,100071.86
2019-05-15T16:49:24.237Z,100070.05
2019-05-15T16:51:55.227Z,100064.88
2019-05-15T16:54:28.707Z,100064.56
2019-05-15T16:56:59.487Z,100070.75
2019-05-15T16:59:35.722Z,100066.11
2019-05-15T17:02:03.577Z,100072.16
2019-05-15T17:04:34.307Z,100067.36
2019-05-15T17:07:05.237Z,100077.01
2019-05-15T17:09:38.299Z,100075.31
2019-05-15T17:12:10.286Z,100073.06
2019-05-15T17:14:41.027Z,100068.98
2019-05-15T17:17:12.249Z,100060.02
2019-05-15T17:19:58.003Z,100057.39
2019-05-15T17:22:29.417Z,100061.63
2019-05-15T17:25:45.617Z,100064.02
2019-05-15T17:34:44.200Z,100062.02
2019-05-15T17:37:38.068Z,100073.16
2019-05-15T17:40:31.197Z,100076.55
2019-05-15T17:43:18.255Z,100081.42
2019-05-15T17:45:49.297Z,100079.88
2019-05-15T17:48:23.757Z,100080.05
2019-05-15T17:51:22.757Z,100073.06
2019-05-15T17:53:58.161Z,100077.42
2019-05-15T17:56:28.918Z,100085.69
2019-05-15T17:58:59.710Z,100087.52
2019-05-15T18:01:34.227Z,100080.95
2019-05-15T18:04:08.425Z,100086.20
2019-05-15T18:06:40.036Z,100089.77
2019-05-15T18:09:12.668Z,100083.75
2019-05-15T18:11:44.643Z,100091.02
2019-05-15T18:14:15.507Z,100092.41
2019-05-15T18:16:48.750Z,100094.55
2019-05-15T18:19:19.227Z,100094.09
2019-05-15T18:21:53.008Z,100098.11
2019-05-15T18:24:24.107Z,100089.61
2019-05-15T18:26:58.418Z,100094.48
2019-05-15T18:29:29.187Z,100093.69
2019-05-15T18:32:00.217Z,100097.63
2019-05-15T18:34:30.977Z,100083.28
2019-05-15T18:37:03.077Z,100085.05
2019-05-15T18:39:34.497Z,100080.24
2019-05-15T18:42:05.537Z,100073.36
2019-05-15T18:44:36.620Z,100066.41
2019-05-15T18:47:08.690Z,100067.34
2019-05-15T18:49:39.739Z,100058.73
2019-05-15T18:52:10.707Z,100059.57
2019-05-15T18:54:41.507Z,100060.44
2019-05-15T18:57:13.547Z,100059.95
2019-05-15T18:59:44.527Z,100059.64
2019-05-15T19:02:15.518Z,100060.13
2019-05-15T19:04:48.889Z,100051.45
2019-05-15T19:07:22.687Z,100052.00
2019-05-15T19:09:53.748Z,100051.94
2019-05-15T19:12:24.518Z,100054.56
2019-05-15T19:14:55.538Z,100048.06
2019-05-15T19:17:27.573Z,100056.33
2019-05-15T19:19:59.028Z,100055.56
2019-05-15T19:22:30.057Z,100063.45
2019-05-15T19:25:04.437Z,100064.20
2019-05-15T19:27:35.747Z,100060.27
2019-05-15T19:30:08.289Z,100061.20
2019-05-15T19:32:39.537Z,100064.69
2019-05-15T19:35:10.558Z,100059.33
2019-05-15T19:37:41.797Z,100059.74
2019-05-15T19:40:13.247Z,100061.82
2019-05-15T19:42:44.327Z,100058.26
2019-05-15T19:45:15.797Z,100051.77
2019-05-15T19:47:47.807Z,100058.81
2019-05-15T19:50:20.748Z,100051.86
2019-05-15T19:52:51.627Z,100048.38
2019-05-15T19:55:22.668Z,100037.48
2019-05-15T19:57:53.943Z,100030.43
2019-05-15T20:00:25.247Z,100028.81
2019-05-15T20:02:58.092Z,100029.22
2019-05-15T20:05:29.242Z,100029.67
2019-05-15T20:08:01.667Z,100024.87
2019-05-15T20:10:32.697Z,100018.85
2019-05-15T20:13:03.567Z,100021.00
2019-05-15T20:15:34.928Z,100018.78
2019-05-15T20:18:07.781Z,100013.45
2019-05-15T20:20:38.741Z,100010.34
2019-05-15T20:23:10.027Z,100004.27
2019-05-15T20:25:40.898Z,100003.40
2019-05-15T20:28:11.688Z,99997.21
2019-05-15T20:30:42.787Z,99996.28
2019-05-15T20:33:13.997Z,99999.21
2019-05-15T20:35:44.927Z,99993.95
2019-05-15T20:38:15.738Z,99984.87
2019-05-15T20:40:48.569Z,99990.50
2019-05-15T20:43:19.428Z,99987.80
2019-05-15T20:45:50.397Z,99992.08
2019-05-15T20:48:21.499Z,99986.83
2019-05-15T20:50:52.788Z,99996.41
2019-05-15T20:53:23.627Z,100000.45
2019-05-15T20:55:54.467Z,100001.28
2019-05-15T20:58:25.307Z,99995.55
2019-05-15T21:00:58.851Z,99992.46
2019-05-15T21:03:28.387Z,99992.77
2019-05-15T21:06:01.407Z,99972.76
2019-05-15T21:08:32.558Z,99969.50
2019-05-15T21:11:03.297Z,99971.30
2019-05-15T21:13:33.987Z,99964.80
2019-05-15T21:16:04.947Z,99956.44
2019-05-15T21:18:37.928Z,99953.80
2019-05-15T21:21:10.479Z,99935.03
2019-05-15T21:23:40.950Z,99938.53
2019-05-15T21:26:11.868Z,99933.27
2019-05-15T21:28:42.667Z,99942.77
2019-05-15T21:31:13.907Z,99952.91
2019-05-15T21:33:44.768Z,99955.91
2019-05-15T21:36:19.451Z,99954.11
2019-05-15T21:38:48.669Z,99947.47
2019-05-15T21:41:19.717Z,99951.11
2019-05-15T21:43:51.008Z,99942.77
2019-05-15T21:46:22.011Z,99943.70
2019-05-15T21:48:52.807Z,99940.67
2019-05-15T21:51:23.557Z,99937.97
2019-05-15T21:53:54.387Z,99937.52
2019-05-15T21:56:25.272Z,99933.02
2019-05-15T21:58:58.123Z,99923.45
2019-05-15T22:01:28.866Z,99922.13
2019-05-15T22:03:59.637Z,99912.55
2019-05-15T22:06:30.698Z,99913.31
2019-05-15T22:09:01.427Z,99906.66
2019-05-15T22:11:33.797Z,99902.65
2019-05-15T22:14:04.727Z,99899.54
2019-05-15T22:16:35.529Z,99903.02
2019-05-15T22:19:06.767Z,99905.66
2019-05-15T22:21:40.459Z,99899.84
2019-05-15T22:24:10.099Z,99893.27
2019-05-15T22:26:41.057Z,99889.66
2019-05-15T22:29:12.027Z,99889.25
2019-05-15T22:31:42.927Z,99881.78
2019-05-15T22:34:13.787Z,99885.31
2019-05-15T22:36:45.028Z,99893.27
2019-05-15T22:39:15.777Z,99897.62
2019-05-15T22:41:47.891Z,99896.38
2019-05-15T22:44:19.285Z,99891.20
2019-05-15T22:46:50.267Z,99890.83
2019-05-15T22:49:21.099Z,99891.77
2019-05-15T22:51:52.029Z,99887.52
2019-05-15T22:54:22.728Z,99890.59
2019-05-15T22:56:53.487Z,99891.91
2019-05-15T22:59:24.827Z,99895.85
2019-05-15T23:01:58.194Z,99894.54
2019-05-15T23:04:29.188Z,99892.66
2019-05-15T23:07:00.057Z,99894.39
2019-05-15T23:09:31.028Z,99895.59
2019-05-15T23:12:02.103Z,99896.83
2019-05-15T23:14:32.907Z,99885.01
2019-05-15T23:17:03.667Z,99877.05
2019-05-15T23:19:34.808Z,99880.54
2019-05-15T23:22:08.169Z,99878.36
2019-05-15T23:24:38.809Z,99881.37
2019-05-15T23:27:09.547Z,99877.84
2019-05-15T23:29:40.887Z,99874.72
2019-05-15T23:32:12.307Z,99878.66
2019-05-15T23:34:43.057Z,99874.80
2019-05-15T23:37:13.789Z,99874.72
2019-05-15T23:39:44.657Z,99873.89
2019-05-15T23:42:15.478Z,99869.84
2019-05-15T23:44:48.576Z,99862.52
2019-05-15T23:47:19.088Z,99856.33
2019-05-15T23:49:49.827Z,99866.01
2019-05-15T23:52:20.717Z,99857.64
2019-05-15T23:54:52.033Z,99861.13
2019-05-15T23:57:23.041Z,99862.45
2019-05-15T23:59:54.117Z,99855.39
